createdAt,value
2023-02-14T00:00:39.812Z,2.55
2023-02-14T00:01:39.814Z,2.54
2023-02-14T00:02:39.868Z,2.53
2023-02-14T00:03:39.818Z,2.53
2023-02-14T00:04:39.807Z,2.53
2023-02-14T00:05:39.767Z,2.52
2023-02-14T00:06:39.751Z,2.52
2023-02-14T00:07:39.764Z,2.52
2023-02-14T00:08:39.739Z,2.52
2023-02-14T00:09:39.823Z,2.51
2023-02-14T00:10:39.851Z,2.50
2023-02-14T00:11:39.721Z,2.49
2023-02-14T00:12:39.681Z,2.48
2023-02-14T00:13:39.695Z,2.47
2023-02-14T00:14:39.688Z,2.47
2023-02-14T00:15:40.000Z,2.46
2023-02-14T00:16:39.628Z,2.46
2023-02-14T00:17:40.026Z,2.47
2023-02-14T00:18:40.049Z,2.47
2023-02-14T00:19:40.075Z,2.46
2023-02-14T00:20:40.090Z,2.46
2023-02-14T00:21:39.917Z,2.45
2023-02-14T00:22:40.142Z,2.44
2023-02-14T00:23:40.178Z,2.43
2023-02-14T00:24:39.744Z,2.43
2023-02-14T00:25:40.174Z,2.41
2023-02-14T00:26:40.260Z,2.39
2023-02-14T00:27:40.296Z,2.37
2023-02-14T00:28:39.488Z,2.35
2023-02-14T00:29:39.525Z,2.34
2023-02-14T00:30:39.564Z,2.32
2023-02-14T00:31:39.607Z,2.31
2023-02-14T00:32:39.455Z,2.29
2023-02-14T00:33:39.465Z,2.27
2023-02-14T00:34:39.451Z,2.26
2023-02-14T00:35:39.431Z,2.26
2023-02-14T00:36:39.413Z,2.27
2023-02-14T00:37:39.420Z,2.28
2023-02-14T00:38:39.457Z,2.29
2023-02-14T00:39:39.401Z,2.30
2023-02-14T00:40:39.361Z,2.30
2023-02-14T00:41:39.368Z,2.30
2023-02-14T00:42:39.457Z,2.30
2023-02-14T00:43:39.332Z,2.30
2023-02-14T00:44:39.311Z,2.30
2023-02-14T00:45:39.444Z,2.29
2023-02-14T00:46:39.460Z,2.29
2023-02-14T00:47:39.329Z,2.28
2023-02-14T00:48:39.265Z,2.27
2023-02-14T00:49:39.476Z,2.27
2023-02-14T00:50:39.286Z,2.26
2023-02-14T00:51:39.301Z,2.25
2023-02-14T00:52:39.245Z,2.24
2023-02-14T00:53:39.273Z,2.23
2023-02-14T00:54:39.411Z,2.23
2023-02-14T00:55:39.381Z,2.22
2023-02-14T00:56:39.189Z,2.20
2023-02-14T00:57:39.185Z,2.19
2023-02-14T00:58:39.472Z,2.17
2023-02-14T00:59:39.159Z,2.16
2023-02-14T01:00:39.154Z,2.14
2023-02-14T01:01:39.159Z,2.13
2023-02-14T01:02:39.205Z,2.11
2023-02-14T01:03:39.122Z,2.09
2023-02-14T01:04:39.108Z,2.08
2023-02-14T01:05:39.104Z,2.07
2023-02-14T01:06:39.341Z,2.06
2023-02-14T01:07:39.111Z,2.05
2023-02-14T01:08:39.060Z,2.04
2023-02-14T01:09:39.074Z,2.03
2023-02-14T01:10:39.364Z,2.03
2023-02-14T01:11:39.032Z,2.02
2023-02-14T01:12:39.028Z,2.01
2023-02-14T01:13:39.437Z,2.01
2023-02-14T01:14:39.461Z,2.01
2023-02-14T01:15:39.492Z,2.00
2023-02-14T01:16:39.070Z,2.00
2023-02-14T01:17:39.115Z,2.00
2023-02-14T01:18:39.497Z,2.00
2023-02-14T01:19:38.955Z,2.00
2023-02-14T01:20:38.932Z,2.00
2023-02-14T01:21:38.912Z,2.01
2023-02-14T01:22:39.502Z,2.01
2023-02-14T01:23:39.497Z,2.01
2023-02-14T01:24:39.491Z,2.01
2023-02-14T01:25:39.507Z,2.01
2023-02-14T01:26:38.886Z,2.01
2023-02-14T01:27:39.505Z,2.01
2023-02-14T01:28:39.390Z,2.01
2023-02-14T01:29:39.502Z,2.01
2023-02-14T01:30:39.541Z,2.01
2023-02-14T01:31:39.364Z,2.01
2023-02-14T01:32:39.492Z,2.01
2023-02-14T01:33:39.505Z,2.01
2023-02-14T01:34:38.822Z,2.00
2023-02-14T01:35:39.079Z,1.99
2023-02-14T01:36:38.774Z,1.99
2023-02-14T01:37:38.758Z,1.98
2023-02-14T01:38:38.709Z,1.97
2023-02-14T01:39:38.712Z,1.97
2023-02-14T01:40:38.729Z,1.97
2023-02-14T01:41:38.777Z,1.97
2023-02-14T01:42:38.781Z,1.97
2023-02-14T01:43:38.821Z,1.97
2023-02-14T01:44:38.837Z,1.97
2023-02-14T01:45:38.926Z,1.97
2023-02-14T01:46:38.660Z,1.97
2023-02-14T01:47:38.626Z,1.97
2023-02-14T01:48:38.605Z,1.97
2023-02-14T01:49:38.999Z,1.96
2023-02-14T01:50:39.016Z,1.96
2023-02-14T01:51:38.566Z,1.95
2023-02-14T01:52:38.561Z,1.95
2023-02-14T01:53:38.608Z,1.95
2023-02-14T01:54:38.542Z,1.95
2023-02-14T01:55:38.532Z,1.95
2023-02-14T01:56:38.528Z,1.94
2023-02-14T01:57:38.556Z,1.93
2023-02-14T01:58:38.529Z,1.92
2023-02-14T01:59:38.518Z,1.91
2023-02-14T02:00:38.534Z,1.90
2023-02-14T02:01:38.501Z,1.89
2023-02-14T02:02:38.577Z,1.87
2023-02-14T02:03:38.535Z,1.86
2023-02-14T02:04:38.404Z,1.85
2023-02-14T02:05:38.531Z,1.84
2023-02-14T02:06:38.520Z,1.84
2023-02-14T02:07:38.566Z,1.84
2023-02-14T02:08:38.372Z,1.84
2023-02-14T02:09:38.534Z,1.83
2023-02-14T02:10:38.524Z,1.82
2023-02-14T02:11:38.531Z,1.82
2023-02-14T02:12:38.532Z,1.82
2023-02-14T02:13:38.544Z,1.82
2023-02-14T02:14:38.480Z,1.81
2023-02-14T02:15:38.542Z,1.81
2023-02-14T02:16:38.333Z,1.81
2023-02-14T02:17:38.311Z,1.80
2023-02-14T02:18:38.543Z,1.80
2023-02-14T02:19:38.558Z,1.80
2023-02-14T02:20:38.220Z,1.80
2023-02-14T02:21:38.540Z,1.80
2023-02-14T02:22:38.539Z,1.80
2023-02-14T02:23:38.561Z,1.80
2023-02-14T02:24:38.538Z,1.80
2023-02-14T02:25:38.545Z,1.80
2023-02-14T02:26:38.509Z,1.80
2023-02-14T02:27:38.168Z,1.79
2023-02-14T02:28:38.132Z,1.79
2023-02-14T02:29:38.191Z,1.79
2023-02-14T02:30:38.373Z,1.79
2023-02-14T02:31:38.225Z,1.80
2023-02-14T02:32:38.083Z,1.80
2023-02-14T02:33:38.312Z,1.80
2023-02-14T02:34:38.339Z,1.79
2023-02-14T02:35:38.215Z,1.79
2023-02-14T02:36:38.051Z,1.79
2023-02-14T02:37:38.449Z,1.78
2023-02-14T02:38:38.012Z,1.78
2023-02-14T02:39:38.312Z,1.78
2023-02-14T02:40:37.992Z,1.77
2023-02-14T02:41:37.999Z,1.77
2023-02-14T02:42:37.981Z,1.76
2023-02-14T02:43:37.981Z,1.76
2023-02-14T02:44:37.958Z,1.76
2023-02-14T02:45:38.356Z,1.76
2023-02-14T02:46:38.564Z,1.76
2023-02-14T02:47:37.924Z,1.76
2023-02-14T02:48:37.927Z,1.77
2023-02-14T02:49:37.905Z,1.76
2023-02-14T02:50:37.881Z,1.76
2023-02-14T02:51:37.958Z,1.75
2023-02-14T02:52:37.861Z,1.75
2023-02-14T02:53:37.999Z,1.74
2023-02-14T02:54:38.024Z,1.74
2023-02-14T02:55:37.831Z,1.73
2023-02-14T02:56:37.913Z,1.73
2023-02-14T02:57:37.928Z,1.73
2023-02-14T02:58:38.133Z,1.72
2023-02-14T02:59:37.811Z,1.70
2023-02-14T03:00:37.771Z,1.70
2023-02-14T03:01:38.253Z,1.69
2023-02-14T03:02:37.960Z,1.68
2023-02-14T03:03:38.271Z,1.67
2023-02-14T03:04:38.194Z,1.66
2023-02-14T03:05:38.327Z,1.65
2023-02-14T03:06:38.149Z,1.65
2023-02-14T03:07:38.374Z,1.64
2023-02-14T03:08:37.671Z,1.63
2023-02-14T03:09:37.790Z,1.62
2023-02-14T03:10:38.454Z,1.62
2023-02-14T03:11:38.472Z,1.61
2023-02-14T03:12:37.643Z,1.60
2023-02-14T03:13:38.377Z,1.60
2023-02-14T03:14:38.122Z,1.60
2023-02-14T03:15:37.619Z,1.59
2023-02-14T03:16:37.584Z,1.58
2023-02-14T03:17:37.598Z,1.57
2023-02-14T03:18:37.555Z,1.56
2023-02-14T03:19:37.582Z,1.55
2023-02-14T03:20:37.534Z,1.55
2023-02-14T03:21:37.588Z,1.54
2023-02-14T03:22:37.512Z,1.54
2023-02-14T03:23:37.513Z,1.53
2023-02-14T03:24:37.487Z,1.53
2023-02-14T03:25:37.589Z,1.52
2023-02-14T03:26:37.473Z,1.52
2023-02-14T03:27:37.481Z,1.51
2023-02-14T03:28:37.587Z,1.50
2023-02-14T03:29:37.449Z,1.50
2023-02-14T03:30:37.426Z,1.49
2023-02-14T03:31:37.684Z,1.49
2023-02-14T03:32:37.389Z,1.49
2023-02-14T03:33:37.597Z,1.49
2023-02-14T03:34:37.589Z,1.49
2023-02-14T03:35:37.393Z,1.48
2023-02-14T03:36:37.353Z,1.48
2023-02-14T03:37:37.564Z,1.48
2023-02-14T03:38:37.593Z,1.47
2023-02-14T03:39:37.592Z,1.47
2023-02-14T03:40:37.602Z,1.46
2023-02-14T03:41:37.561Z,1.46
2023-02-14T03:42:37.284Z,1.45
2023-02-14T03:43:37.298Z,1.44
2023-02-14T03:44:37.260Z,1.43
2023-02-14T03:45:37.287Z,1.42
2023-02-14T03:46:37.274Z,1.41
2023-02-14T03:47:37.241Z,1.40
2023-02-14T03:48:37.207Z,1.39
2023-02-14T03:49:37.441Z,1.39
2023-02-14T03:50:37.467Z,1.38
2023-02-14T03:51:37.204Z,1.38
2023-02-14T03:52:37.189Z,1.37
2023-02-14T03:53:37.172Z,1.37
2023-02-14T03:54:37.145Z,1.36
2023-02-14T03:55:37.190Z,1.35
2023-02-14T03:56:37.142Z,1.34
2023-02-14T03:57:37.281Z,1.34
2023-02-14T03:58:37.609Z,1.33
2023-02-14T03:59:37.610Z,1.32
2023-02-14T04:00:37.075Z,1.31
2023-02-14T04:01:37.578Z,1.30
2023-02-14T04:02:37.274Z,1.29
2023-02-14T04:03:37.143Z,1.28
2023-02-14T04:04:37.038Z,1.27
2023-02-14T04:05:37.086Z,1.26
2023-02-14T04:06:37.011Z,1.25
2023-02-14T04:07:37.150Z,1.23
2023-02-14T04:08:37.169Z,1.23
2023-02-14T04:09:36.989Z,1.22
2023-02-14T04:10:36.970Z,1.22
2023-02-14T04:11:37.261Z,1.22
2023-02-14T04:12:38.204Z,1.22
2023-02-14T04:13:37.061Z,1.21
2023-02-14T04:14:37.350Z,1.21
2023-02-14T04:15:36.928Z,1.21
2023-02-14T04:16:37.416Z,1.20
2023-02-14T04:17:37.187Z,1.20
2023-02-14T04:18:36.880Z,1.19
2023-02-14T04:19:36.855Z,1.18
2023-02-14T04:20:36.863Z,1.18
2023-02-14T04:21:37.553Z,1.18
2023-02-14T04:22:36.867Z,1.17
2023-02-14T04:23:37.594Z,1.16
2023-02-14T04:24:36.833Z,1.15
2023-02-14T04:25:37.597Z,1.15
2023-02-14T04:26:37.430Z,1.14
2023-02-14T04:27:36.767Z,1.14
2023-02-14T04:28:36.781Z,1.13
2023-02-14T04:29:37.109Z,1.13
2023-02-14T04:30:37.025Z,1.12
2023-02-14T04:31:36.872Z,1.12
2023-02-14T04:32:36.790Z,1.12
2023-02-14T04:33:36.862Z,1.11
2023-02-14T04:34:37.640Z,1.11
2023-02-14T04:35:36.684Z,1.11
2023-02-14T04:36:36.685Z,1.10
2023-02-14T04:37:36.668Z,1.10
2023-02-14T04:38:36.681Z,1.10
2023-02-14T04:39:36.643Z,1.09
2023-02-14T04:40:36.646Z,1.09
2023-02-14T04:41:36.632Z,1.08
2023-02-14T04:42:36.608Z,1.07
2023-02-14T04:43:36.612Z,1.07
2023-02-14T04:44:36.597Z,1.06
2023-02-14T04:45:36.636Z,1.06
2023-02-14T04:46:36.594Z,1.05
2023-02-14T04:47:36.552Z,1.05
2023-02-14T04:48:36.946Z,1.05
2023-02-14T04:49:36.644Z,1.04
2023-02-14T04:50:36.537Z,1.04
2023-02-14T04:51:36.504Z,1.03
2023-02-14T04:52:36.506Z,1.03
2023-02-14T04:53:36.547Z,1.02
2023-02-14T04:54:36.485Z,1.01
2023-02-14T04:55:36.444Z,1.01
2023-02-14T04:56:36.455Z,1.00
2023-02-14T04:57:36.664Z,0.99
2023-02-14T04:58:36.442Z,0.98
2023-02-14T04:59:36.430Z,0.98
2023-02-14T05:00:36.511Z,0.97
2023-02-14T05:01:36.712Z,0.96
2023-02-14T05:02:36.394Z,0.95
2023-02-14T05:03:36.353Z,0.93
2023-02-14T05:04:36.385Z,0.92
2023-02-14T05:05:36.638Z,0.92
2023-02-14T05:06:36.355Z,0.91
2023-02-14T05:07:36.316Z,0.90
2023-02-14T05:08:36.318Z,0.89
2023-02-14T05:09:36.655Z,0.88
2023-02-14T05:10:36.335Z,0.88
2023-02-14T05:11:36.270Z,0.87
2023-02-14T05:12:36.275Z,0.86
2023-02-14T05:13:36.249Z,0.85
2023-02-14T05:14:36.254Z,0.84
2023-02-14T05:15:38.407Z,0.83
2023-02-14T05:16:36.280Z,0.83
2023-02-14T05:17:36.662Z,0.82
2023-02-14T05:18:36.213Z,0.81
2023-02-14T05:19:36.179Z,0.80
2023-02-14T05:20:36.202Z,0.79
2023-02-14T05:21:36.658Z,0.78
2023-02-14T05:22:36.163Z,0.77
2023-02-14T05:23:36.140Z,0.76
2023-02-14T05:24:36.140Z,0.75
2023-02-14T05:25:36.124Z,0.74
2023-02-14T05:26:36.135Z,0.73
2023-02-14T05:27:36.107Z,0.72
2023-02-14T05:28:36.108Z,0.71
2023-02-14T05:29:36.664Z,0.70
2023-02-14T05:30:36.182Z,0.69
2023-02-14T05:31:36.166Z,0.68
2023-02-14T05:32:36.054Z,0.67
2023-02-14T05:33:36.084Z,0.66
2023-02-14T05:34:36.034Z,0.64
2023-02-14T05:35:36.003Z,0.63
2023-02-14T05:36:36.023Z,0.62
2023-02-14T05:37:35.993Z,0.61
2023-02-14T05:38:35.983Z,0.61
2023-02-14T05:39:35.963Z,0.60
2023-02-14T05:40:36.274Z,0.59
2023-02-14T05:41:35.954Z,0.59
2023-02-14T05:42:35.937Z,0.59
2023-02-14T05:43:35.927Z,0.58
2023-02-14T05:44:35.917Z,0.58
2023-02-14T05:45:35.930Z,0.58
2023-02-14T05:46:35.909Z,0.58
2023-02-14T05:47:35.899Z,0.58
2023-02-14T05:48:35.874Z,0.59
2023-02-14T05:49:36.184Z,0.59
2023-02-14T05:50:35.864Z,0.59
2023-02-14T05:51:35.885Z,0.60
2023-02-14T05:52:35.818Z,0.60
2023-02-14T05:53:35.894Z,0.59
2023-02-14T05:54:35.806Z,0.59
2023-02-14T05:55:35.782Z,0.59
2023-02-14T05:56:35.803Z,0.59
2023-02-14T05:57:36.433Z,0.59
2023-02-14T05:58:35.758Z,0.59
2023-02-14T05:59:35.737Z,0.59
2023-02-14T06:00:35.747Z,0.59
2023-02-14T06:01:36.417Z,0.59
2023-02-14T06:02:35.733Z,0.59
2023-02-14T06:03:35.695Z,0.59
2023-02-14T06:04:35.786Z,0.60
2023-02-14T06:05:35.693Z,0.61
2023-02-14T06:06:36.732Z,0.62
2023-02-14T06:07:35.661Z,0.62
2023-02-14T06:08:35.680Z,0.63
2023-02-14T06:09:35.646Z,0.64
2023-02-14T06:10:35.642Z,0.64
2023-02-14T06:11:35.607Z,0.65
2023-02-14T06:12:35.638Z,0.65
2023-02-14T06:13:35.712Z,0.65
2023-02-14T06:14:35.591Z,0.65
2023-02-14T06:15:35.569Z,0.65
2023-02-14T06:16:35.753Z,0.65
2023-02-14T06:17:35.713Z,0.65
2023-02-14T06:18:35.560Z,0.65
2023-02-14T06:19:35.518Z,0.65
2023-02-14T06:20:35.542Z,0.65
2023-02-14T06:21:35.709Z,0.65
2023-02-14T06:22:35.503Z,0.66
2023-02-14T06:23:35.499Z,0.66
2023-02-14T06:24:35.488Z,0.67
2023-02-14T06:25:35.467Z,0.67
2023-02-14T06:26:35.449Z,0.67
2023-02-14T06:27:35.441Z,0.68
2023-02-14T06:28:35.450Z,0.68
2023-02-14T06:29:35.414Z,0.68
2023-02-14T06:30:35.533Z,0.67
2023-02-14T06:31:35.487Z,0.67
2023-02-14T06:32:35.385Z,0.66
2023-02-14T06:33:35.518Z,0.66
2023-02-14T06:34:35.369Z,0.66
2023-02-14T06:35:35.350Z,0.65
2023-02-14T06:36:35.342Z,0.65
2023-02-14T06:37:35.559Z,0.65
2023-02-14T06:38:35.357Z,0.65
2023-02-14T06:39:35.301Z,0.66
2023-02-14T06:40:35.329Z,0.67
2023-02-14T06:41:35.273Z,0.69
2023-02-14T06:42:35.269Z,0.71
2023-02-14T06:43:35.257Z,0.72
2023-02-14T06:44:35.273Z,0.73
2023-02-14T06:45:35.733Z,0.73
2023-02-14T06:46:35.296Z,0.73
2023-02-14T06:47:35.375Z,0.73
2023-02-14T06:48:35.207Z,0.74
2023-02-14T06:49:35.209Z,0.74
2023-02-14T06:50:35.189Z,0.75
2023-02-14T06:51:35.159Z,0.75
2023-02-14T06:52:35.168Z,0.76
2023-02-14T06:53:35.137Z,0.76
2023-02-14T06:54:35.163Z,0.76
2023-02-14T06:55:35.120Z,0.76
2023-02-14T06:56:35.124Z,0.77
2023-02-14T06:57:35.086Z,0.77
2023-02-14T06:58:35.088Z,0.77
2023-02-14T06:59:35.081Z,0.77
2023-02-14T07:00:35.093Z,0.77
2023-02-14T07:01:35.837Z,0.77
2023-02-14T07:02:35.094Z,0.77
2023-02-14T07:03:35.034Z,0.77
2023-02-14T07:04:35.056Z,0.77
2023-02-14T07:05:35.004Z,0.77
2023-02-14T07:06:35.005Z,0.77
2023-02-14T07:07:34.987Z,0.77
2023-02-14T07:08:35.008Z,0.77
2023-02-14T07:09:34.976Z,0.77
2023-02-14T07:10:34.962Z,0.77
2023-02-14T07:11:34.932Z,0.77
2023-02-14T07:12:34.992Z,0.78
2023-02-14T07:13:34.916Z,0.78
2023-02-14T07:14:34.932Z,0.78
2023-02-14T07:15:34.927Z,0.79
2023-02-14T07:16:35.761Z,0.79
2023-02-14T07:17:35.750Z,0.80
2023-02-14T07:18:34.886Z,0.81
2023-02-14T07:19:34.864Z,0.82
2023-02-14T07:20:34.848Z,0.83
2023-02-14T07:21:34.825Z,0.85
2023-02-14T07:22:34.826Z,0.86
2023-02-14T07:23:34.800Z,0.88
2023-02-14T07:24:34.815Z,0.89
2023-02-14T07:25:34.783Z,0.91
2023-02-14T07:26:34.791Z,0.93
2023-02-14T07:27:34.783Z,0.94
2023-02-14T07:28:34.792Z,0.96
2023-02-14T07:29:34.753Z,0.98
2023-02-14T07:30:34.865Z,1.00
2023-02-14T07:31:35.199Z,1.03
2023-02-14T07:32:35.130Z,1.06
2023-02-14T07:33:34.759Z,1.08
2023-02-14T07:34:34.740Z,1.10
2023-02-14T07:35:34.689Z,1.11
2023-02-14T07:36:34.675Z,1.13
2023-02-14T07:37:34.760Z,1.15
2023-02-14T07:38:34.652Z,1.17
2023-02-14T07:39:34.648Z,1.18
2023-02-14T07:40:34.621Z,1.20
2023-02-14T07:41:34.607Z,1.22
2023-02-14T07:42:34.620Z,1.24
2023-02-14T07:43:34.581Z,1.27
2023-02-14T07:44:34.603Z,1.29
2023-02-14T07:45:34.777Z,1.33
2023-02-14T07:46:34.603Z,1.38
2023-02-14T07:47:34.523Z,1.45
2023-02-14T07:48:34.751Z,1.53
2023-02-14T07:49:34.773Z,1.63
2023-02-14T07:50:34.512Z,1.73
2023-02-14T07:51:34.497Z,1.82
2023-02-14T07:52:34.490Z,1.91
2023-02-14T07:53:34.511Z,2.01
2023-02-14T07:54:34.471Z,2.13
2023-02-14T07:55:34.449Z,2.25
2023-02-14T07:56:35.273Z,2.37
2023-02-14T07:57:34.763Z,2.49
2023-02-14T07:58:34.420Z,2.60
2023-02-14T07:59:34.402Z,2.72
2023-02-14T08:00:35.365Z,2.82
2023-02-14T08:01:34.497Z,2.93
2023-02-14T08:02:34.379Z,3.03
2023-02-14T08:03:34.349Z,3.12
2023-02-14T08:04:34.554Z,3.19
2023-02-14T08:05:34.788Z,3.24
2023-02-14T08:06:34.789Z,3.30
2023-02-14T08:07:34.307Z,3.37
2023-02-14T08:08:34.325Z,3.43
2023-02-14T08:09:34.302Z,3.50
2023-02-14T08:10:34.425Z,3.56
2023-02-14T08:11:34.252Z,3.61
2023-02-14T08:12:34.483Z,3.67
2023-02-14T08:13:34.505Z,3.72
2023-02-14T08:14:34.536Z,3.76
2023-02-14T08:15:34.217Z,3.80
2023-02-14T08:16:34.338Z,3.84
2023-02-14T08:17:35.786Z,3.89
2023-02-14T08:18:34.206Z,3.94
2023-02-14T08:19:34.171Z,4.00
2023-02-14T08:20:34.331Z,4.07
2023-02-14T08:21:34.339Z,4.12
2023-02-14T08:22:34.346Z,4.17
2023-02-14T08:23:34.118Z,4.20
2023-02-14T08:24:34.427Z,4.24
2023-02-14T08:25:34.449Z,4.27
2023-02-14T08:26:34.476Z,4.29
2023-02-14T08:27:34.256Z,4.30
2023-02-14T08:28:34.531Z,4.33
2023-02-14T08:29:34.345Z,4.37
2023-02-14T08:30:34.630Z,4.43
2023-02-14T08:31:36.320Z,4.50
2023-02-14T08:32:34.583Z,4.57
2023-02-14T08:33:34.674Z,4.62
2023-02-14T08:34:34.680Z,4.68
2023-02-14T08:35:34.718Z,4.74
2023-02-14T08:36:34.737Z,4.80
2023-02-14T08:37:34.770Z,4.85
2023-02-14T08:38:34.058Z,4.90
2023-02-14T08:39:34.719Z,4.92
2023-02-14T08:40:34.850Z,4.96
2023-02-14T08:41:34.810Z,5.01
2023-02-14T08:42:34.186Z,5.03
2023-02-14T08:43:34.845Z,5.03
2023-02-14T08:44:34.743Z,5.02
2023-02-14T08:45:34.520Z,4.98
2023-02-14T08:46:33.919Z,4.93
2023-02-14T08:47:33.861Z,4.86
2023-02-14T08:48:33.826Z,4.81
2023-02-14T08:49:33.858Z,4.76
2023-02-14T08:50:33.872Z,4.71
2023-02-14T08:51:33.823Z,4.64
2023-02-14T08:52:33.815Z,4.54
2023-02-14T08:53:33.831Z,4.46
2023-02-14T08:54:33.816Z,4.38
2023-02-14T08:55:33.780Z,4.30
2023-02-14T08:56:33.792Z,4.26
2023-02-14T08:57:33.793Z,4.24
2023-02-14T08:58:33.710Z,4.22
2023-02-14T08:59:33.726Z,4.19
2023-02-14T09:00:33.876Z,4.18
2023-02-14T09:01:33.918Z,4.17
2023-02-14T09:02:33.683Z,4.17
2023-02-14T09:03:33.790Z,4.17
2023-02-14T09:04:33.910Z,4.16
2023-02-14T09:05:33.848Z,4.12
2023-02-14T09:06:33.629Z,4.12
2023-02-14T09:07:33.634Z,4.14
2023-02-14T09:08:33.610Z,4.18
2023-02-14T09:09:33.819Z,4.22
2023-02-14T09:10:33.646Z,4.25
2023-02-14T09:11:33.586Z,4.26
2023-02-14T09:12:33.568Z,4.26
2023-02-14T09:13:33.556Z,4.26
2023-02-14T09:14:33.609Z,4.25
2023-02-14T09:15:33.574Z,4.23
2023-02-14T09:16:33.575Z,4.17
2023-02-14T09:17:33.796Z,4.10
2023-02-14T09:18:33.519Z,4.05
2023-02-14T09:19:33.487Z,4.03
2023-02-14T09:20:33.597Z,4.01
2023-02-14T09:21:33.487Z,3.99
2023-02-14T09:22:33.525Z,3.98
2023-02-14T09:23:33.456Z,3.96
2023-02-14T09:24:33.435Z,3.93
2023-02-14T09:25:33.459Z,3.92
2023-02-14T09:26:33.400Z,3.93
2023-02-14T09:27:33.412Z,3.93
2023-02-14T09:28:33.830Z,3.91
2023-02-14T09:29:33.392Z,3.89
2023-02-14T09:30:33.469Z,3.88
2023-02-14T09:31:33.514Z,3.89
2023-02-14T09:32:33.390Z,3.92
2023-02-14T09:33:33.344Z,3.95
2023-02-14T09:34:33.306Z,3.95
2023-02-14T09:35:33.313Z,3.92
2023-02-14T09:36:33.855Z,3.90
2023-02-14T09:37:33.287Z,3.89
2023-02-14T09:38:33.261Z,3.90
2023-02-14T09:39:33.299Z,3.91
2023-02-14T09:40:33.236Z,3.91
2023-02-14T09:41:33.297Z,3.89
2023-02-14T09:42:33.307Z,3.88
2023-02-14T09:43:33.220Z,3.87
2023-02-14T09:44:33.367Z,3.85
2023-02-14T09:45:33.302Z,3.85
2023-02-14T09:46:33.166Z,3.87
2023-02-14T09:47:33.164Z,3.89
2023-02-14T09:48:33.270Z,3.92
2023-02-14T09:49:33.311Z,3.94
2023-02-14T09:50:33.138Z,3.97
2023-02-14T09:51:33.140Z,4.00
2023-02-14T09:52:33.095Z,4.01
2023-02-14T09:53:33.119Z,4.00
2023-02-14T09:54:33.100Z,3.98
2023-02-14T09:55:33.087Z,3.98
2023-02-14T09:56:42.853Z,3.99
2023-02-14T09:57:34.829Z,4.02
2023-02-14T09:58:33.471Z,4.04
2023-02-14T09:59:33.386Z,4.05
2023-02-14T10:00:33.858Z,4.05
2023-02-14T10:01:33.300Z,4.05
2023-02-14T10:02:33.014Z,4.05
2023-02-14T10:03:33.012Z,4.03
2023-02-14T10:04:33.007Z,4.01
2023-02-14T10:05:33.028Z,3.97
2023-02-14T10:06:32.958Z,3.91
2023-02-14T10:07:32.943Z,3.87
2023-02-14T10:08:33.106Z,3.84
2023-02-14T10:09:33.138Z,3.82
2023-02-14T10:10:32.912Z,3.80
2023-02-14T10:11:32.910Z,3.80
2023-02-14T10:12:32.879Z,3.81
2023-02-14T10:13:32.879Z,3.82
2023-02-14T10:14:32.865Z,3.81
2023-02-14T10:15:32.860Z,3.78
2023-02-14T10:16:32.888Z,3.76
2023-02-14T10:17:32.866Z,3.74
2023-02-14T10:18:32.807Z,3.73
2023-02-14T10:19:32.826Z,3.73
2023-02-14T10:20:32.785Z,3.75
2023-02-14T10:21:32.793Z,3.77
2023-02-14T10:22:32.769Z,3.77
2023-02-14T10:23:32.784Z,3.77
2023-02-14T10:24:32.878Z,3.76
2023-02-14T10:25:32.747Z,3.75
2023-02-14T10:26:32.702Z,3.74
2023-02-14T10:27:32.776Z,3.73
2023-02-14T10:28:32.723Z,3.73
2023-02-14T10:29:32.772Z,3.75
2023-02-14T10:30:32.788Z,3.76
2023-02-14T10:31:32.895Z,3.77
2023-02-14T10:32:32.668Z,3.77
2023-02-14T10:33:32.647Z,3.77
2023-02-14T10:34:32.650Z,3.76
2023-02-14T10:35:32.657Z,3.76
2023-02-14T10:36:32.600Z,3.76
2023-02-14T10:37:32.607Z,3.76
2023-02-14T10:38:32.572Z,3.77
2023-02-14T10:39:32.601Z,3.77
2023-02-14T10:40:32.560Z,3.78
2023-02-14T10:41:32.559Z,3.79
2023-02-14T10:42:32.534Z,3.80
2023-02-14T10:43:32.541Z,3.81
2023-02-14T10:44:32.524Z,3.81
2023-02-14T10:45:32.668Z,3.82
2023-02-14T10:46:32.485Z,3.84
2023-02-14T10:47:32.494Z,3.88
2023-02-14T10:48:32.466Z,3.91
2023-02-14T10:49:32.483Z,3.93
2023-02-14T10:50:32.463Z,3.95
2023-02-14T10:51:34.046Z,3.97
2023-02-14T10:52:32.413Z,3.99
2023-02-14T10:53:32.416Z,4.00
2023-02-14T10:54:32.416Z,4.02
2023-02-14T10:55:33.021Z,4.02
2023-02-14T10:56:32.391Z,4.03
2023-02-14T10:57:32.388Z,4.03
2023-02-14T10:58:32.346Z,4.04
2023-02-14T10:59:32.396Z,4.06
2023-02-14T11:00:32.323Z,4.07
2023-02-14T11:01:32.546Z,4.08
2023-02-14T11:02:32.311Z,4.10
2023-02-14T11:03:32.369Z,4.12
2023-02-14T11:04:32.291Z,4.13
2023-02-14T11:05:32.341Z,4.15
2023-02-14T11:06:32.277Z,4.16
2023-02-14T11:07:32.264Z,4.18
2023-02-14T11:08:32.253Z,4.20
2023-02-14T11:09:32.259Z,4.24
2023-02-14T11:10:32.218Z,4.26
2023-02-14T11:11:32.223Z,4.27
2023-02-14T11:12:32.715Z,4.29
2023-02-14T11:13:32.202Z,4.30
2023-02-14T11:14:32.203Z,4.32
2023-02-14T11:15:32.193Z,4.33
2023-02-14T11:16:32.257Z,4.34
2023-02-14T11:17:32.167Z,4.35
2023-02-14T11:18:32.137Z,4.37
2023-02-14T11:19:32.131Z,4.39
2023-02-14T11:20:32.162Z,4.40
2023-02-14T11:21:32.101Z,4.41
2023-02-14T11:22:32.096Z,4.41
2023-02-14T11:23:32.083Z,4.41
2023-02-14T11:24:32.509Z,4.42
2023-02-14T11:25:32.542Z,4.44
2023-02-14T11:26:32.041Z,4.46
2023-02-14T11:27:32.042Z,4.47
2023-02-14T11:28:32.633Z,4.47
2023-02-14T11:29:32.140Z,4.48
2023-02-14T11:30:32.062Z,4.48
2023-02-14T11:31:32.081Z,4.49
2023-02-14T11:32:32.607Z,4.51
2023-02-14T11:33:31.974Z,4.52
2023-02-14T11:34:31.961Z,4.54
2023-02-14T11:35:31.944Z,4.57
2023-02-14T11:36:32.134Z,4.59
2023-02-14T11:37:31.918Z,4.60
2023-02-14T11:38:31.876Z,4.62
2023-02-14T11:39:31.973Z,4.64
2023-02-14T11:40:31.947Z,4.67
2023-02-14T11:41:31.948Z,4.70
2023-02-14T11:42:31.850Z,4.73
2023-02-14T11:43:31.850Z,4.76
2023-02-14T11:44:31.833Z,4.79
2023-02-14T11:45:31.947Z,4.81
2023-02-14T11:46:34.003Z,4.84
2023-02-14T11:47:31.800Z,4.87
2023-02-14T11:48:38.150Z,4.90
2023-02-14T11:49:32.796Z,4.93
2023-02-14T11:50:31.758Z,4.95
2023-02-14T11:51:31.760Z,4.98
2023-02-14T11:52:31.761Z,5.01
2023-02-14T11:53:31.746Z,5.04
2023-02-14T11:54:31.727Z,5.08
2023-02-14T11:55:31.710Z,5.10
2023-02-14T11:56:31.869Z,5.13
2023-02-14T11:57:33.109Z,5.16
2023-02-14T11:58:31.683Z,5.17
2023-02-14T11:59:31.964Z,5.19
2023-02-14T12:00:31.651Z,5.21
2023-02-14T12:01:31.653Z,5.22
2023-02-14T12:02:31.645Z,5.24
2023-02-14T12:03:33.783Z,5.25
2023-02-14T12:04:32.784Z,5.27
2023-02-14T12:05:31.620Z,5.29
2023-02-14T12:06:31.581Z,5.30
2023-02-14T12:07:31.588Z,5.32
2023-02-14T12:08:31.837Z,5.33
2023-02-14T12:09:31.588Z,5.33
2023-02-14T12:10:31.531Z,5.35
2023-02-14T12:11:31.549Z,5.37
2023-02-14T12:12:31.541Z,5.39
2023-02-14T12:13:31.517Z,5.41
2023-02-14T12:14:31.973Z,5.43
2023-02-14T12:15:31.606Z,5.43
2023-02-14T12:16:31.468Z,5.45
2023-02-14T12:17:31.478Z,5.46
2023-02-14T12:18:31.443Z,5.47
2023-02-14T12:19:31.448Z,5.49
2023-02-14T12:20:31.447Z,5.51
2023-02-14T12:21:32.319Z,5.53
2023-02-14T12:22:31.862Z,5.55
2023-02-14T12:23:31.399Z,5.57
2023-02-14T12:24:31.970Z,5.59
2023-02-14T12:25:31.400Z,5.60
2023-02-14T12:26:31.367Z,5.61
2023-02-14T12:27:31.359Z,5.63
2023-02-14T12:28:31.333Z,5.65
2023-02-14T12:29:31.340Z,5.68
2023-02-14T12:30:32.509Z,5.71
2023-02-14T12:31:31.407Z,5.73
2023-02-14T12:32:31.294Z,5.76
2023-02-14T12:33:31.292Z,5.78
2023-02-14T12:34:31.270Z,5.80
2023-02-14T12:35:31.284Z,5.82
2023-02-14T12:36:31.236Z,5.84
2023-02-14T12:37:31.256Z,5.85
2023-02-14T12:38:31.691Z,5.87
2023-02-14T12:39:31.216Z,5.89
2023-02-14T12:40:31.250Z,5.91
2023-02-14T12:41:31.982Z,5.93
2023-02-14T12:42:31.179Z,5.94
2023-02-14T12:43:32.280Z,5.96
2023-02-14T12:44:32.189Z,5.98
2023-02-14T12:45:31.156Z,6.00
2023-02-14T12:46:31.156Z,6.02
2023-02-14T12:47:31.113Z,6.03
2023-02-14T12:48:31.191Z,6.04
2023-02-14T12:49:31.088Z,6.06
2023-02-14T12:50:31.090Z,6.08
2023-02-14T12:51:31.079Z,6.10
2023-02-14T12:52:31.092Z,6.12
2023-02-14T12:53:31.332Z,6.15
2023-02-14T12:54:31.093Z,6.18
2023-02-14T12:55:31.067Z,6.22
2023-02-14T12:56:31.106Z,6.24
2023-02-14T12:57:31.005Z,6.27
2023-02-14T12:58:31.004Z,6.30
2023-02-14T12:59:30.994Z,6.34
2023-02-14T13:00:30.974Z,6.38
2023-02-14T13:01:38.607Z,6.41
2023-02-14T13:02:32.096Z,6.43
2023-02-14T13:03:30.940Z,6.45
2023-02-14T13:04:30.943Z,6.48
2023-02-14T13:05:30.904Z,6.51
2023-02-14T13:06:30.925Z,6.54
2023-02-14T13:07:30.882Z,6.57
2023-02-14T13:08:30.886Z,6.61
2023-02-14T13:09:30.871Z,6.63
2023-02-14T13:10:31.317Z,6.64
2023-02-14T13:11:31.214Z,6.66
2023-02-14T13:12:30.863Z,6.68
2023-02-14T13:13:30.813Z,6.69
2023-02-14T13:14:31.087Z,6.69
2023-02-14T13:15:30.798Z,6.71
2023-02-14T13:16:30.919Z,6.73
2023-02-14T13:17:30.810Z,6.75
2023-02-14T13:18:31.050Z,6.77